sensor_id;sensor_type;location;lat;lon;timestamp;P1;durP1;ratioP1;P2;durP2;ratioP2
68144;SDS011;55400;51.824;-0.196;2023-04-25T00:00:50;12.50;;;3.70;;
68144;SDS011;55400;51.824;-0.196;2023-04-25T00:08:51;13.30;;;3.30;;
68144;SDS011;55400;51.824;-0.196;2023-04-25T00:12:50;12.30;;;3.40;;
68144;SDS011;55400;51.824;-0.196;2023-04-25T00:16:50;12.90;;;3.70;;
68144;SDS011;55400;51.824;-0.196;2023-04-25T00:20:50;11.30;;;3.50;;
68144;SDS011;55400;51.824;-0.196;2023-04-25T00:24:50;16.50;;;3.50;;
68144;SDS011;55400;51.824;-0.196;2023-04-25T00:28:50;14.60;;;4.10;;
68144;SDS011;55400;51.824;-0.196;2023-04-25T00:32:50;15.40;;;4.30;;
68144;SDS011;55400;51.824;-0.196;2023-04-25T00:36:50;14.20;;;3.30;;
68144;SDS011;55400;51.824;-0.196;2023-04-25T00:40:50;15.10;;;3.80;;
68144;SDS011;55400;51.824;-0.196;2023-04-25T00:44:51;17.30;;;4.40;;
68144;SDS011;55400;51.824;-0.196;2023-04-25T00:48:50;13.90;;;3.80;;
68144;SDS011;55400;51.824;-0.196;2023-04-25T00:52:51;13.10;;;3.50;;
68144;SDS011;55400;51.824;-0.196;2023-04-25T00:56:51;7.90;;;3.10;;
68144;SDS011;55400;51.824;-0.196;2023-04-25T01:00:51;15.00;;;3.50;;
68144;SDS011;55400;51.824;-0.196;2023-04-25T01:04:50;11.80;;;3.80;;
68144;SDS011;55400;51.824;-0.196;2023-04-25T01:08:51;12.80;;;3.70;;
68144;SDS011;55400;51.824;-0.196;2023-04-25T01:16:51;12.70;;;3.40;;
68144;SDS011;55400;51.824;-0.196;2023-04-25T01:24:51;13.80;;;3.80;;
68144;SDS011;55400;51.824;-0.196;2023-04-25T01:28:51;11.80;;;3.50;;
68144;SDS011;55400;51.824;-0.196;2023-04-25T01:32:51;9.70;;;2.90;;
68144;SDS011;55400;51.824;-0.196;2023-04-25T01:36:51;11.20;;;3.20;;
68144;SDS011;55400;51.824;-0.196;2023-04-25T01:40:51;12.10;;;3.10;;
68144;SDS011;55400;51.824;-0.196;2023-04-25T01:44:51;12.50;;;3.20;;
68144;SDS011;55400;51.824;-0.196;2023-04-25T01:48:51;12.00;;;2.90;;
68144;SDS011;55400;51.824;-0.196;2023-04-25T01:52:51;11.50;;;3.20;;
68144;SDS011;55400;51.824;-0.196;2023-04-25T01:56:51;8.90;;;2.70;;
68144;SDS011;55400;51.824;-0.196;2023-04-25T02:00:51;11.90;;;3.30;;
68144;SDS011;55400;51.824;-0.196;2023-04-25T02:04:51;14.40;;;3.10;;
68144;SDS011;55400;51.824;-0.196;2023-04-25T02:08:51;16.70;;;3.00;;
68144;SDS011;55400;51.824;-0.196;2023-04-25T02:12:51;9.80;;;2.70;;
68144;SDS011;55400;51.824;-0.196;2023-04-25T02:16:51;15.80;;;3.20;;
68144;SDS011;55400;51.824;-0.196;2023-04-25T02:20:51;13.30;;;3.10;;
68144;SDS011;55400;51.824;-0.196;2023-04-25T02:24:51;11.80;;;3.30;;
68144;SDS011;55400;51.824;-0.196;2023-04-25T02:28:51;14.90;;;2.90;;
68144;SDS011;55400;51.824;-0.196;2023-04-25T02:32:51;11.10;;;3.10;;
68144;SDS011;55400;51.824;-0.196;2023-04-25T02:36:51;14.70;;;3.00;;
68144;SDS011;55400;51.824;-0.196;2023-04-25T02:40:51;10.00;;;2.70;;
68144;SDS011;55400;51.824;-0.196;2023-04-25T02:44:51;14.20;;;3.60;;
68144;SDS011;55400;51.824;-0.196;2023-04-25T02:48:51;7.80;;;2.60;;
68144;SDS011;55400;51.824;-0.196;2023-04-25T02:52:51;13.20;;;3.40;;
68144;SDS011;55400;51.824;-0.196;2023-04-25T02:56:51;13.70;;;2.90;;
68144;SDS011;55400;51.824;-0.196;2023-04-25T03:00:51;12.20;;;2.90;;
68144;SDS011;55400;51.824;-0.196;2023-04-25T03:04:51;9.60;;;3.10;;
68144;SDS011;55400;51.824;-0.196;2023-04-25T03:08:51;12.60;;;3.90;;
68144;SDS011;55400;51.824;-0.196;2023-04-25T03:12:51;10.70;;;2.90;;
68144;SDS011;55400;51.824;-0.196;2023-04-25T03:16:51;15.40;;;3.90;;
68144;SDS011;55400;51.824;-0.196;2023-04-25T03:20:51;11.20;;;3.60;;
68144;SDS011;55400;51.824;-0.196;2023-04-25T03:24:51;9.50;;;3.30;;
68144;SDS011;55400;51.824;-0.196;2023-04-25T03:28:51;13.10;;;3.70;;
68144;SDS011;55400;51.824;-0.196;2023-04-25T03:32:51;13.50;;;3.70;;
68144;SDS011;55400;51.824;-0.196;2023-04-25T03:48:51;15.80;;;3.80;;
68144;SDS011;55400;51.824;-0.196;2023-04-25T03:52:51;18.10;;;3.60;;
68144;SDS011;55400;51.824;-0.196;2023-04-25T03:56:51;13.20;;;3.70;;
68144;SDS011;55400;51.824;-0.196;2023-04-25T04:00:51;14.60;;;3.70;;
68144;SDS011;55400;51.824;-0.196;2023-04-25T04:04:51;12.60;;;3.90;;
68144;SDS011;55400;51.824;-0.196;2023-04-25T04:16:51;16.10;;;3.70;;
68144;SDS011;55400;51.824;-0.196;2023-04-25T04:20:51;18.00;;;3.80;;
68144;SDS011;55400;51.824;-0.196;2023-04-25T04:24:51;16.30;;;4.10;;
68144;SDS011;55400;51.824;-0.196;2023-04-25T04:28:51;13.90;;;3.90;;
68144;SDS011;55400;51.824;-0.196;2023-04-25T04:32:52;17.70;;;4.00;;
68144;SDS011;55400;51.824;-0.196;2023-04-25T04:36:51;12.50;;;3.90;;
68144;SDS011;55400;51.824;-0.196;2023-04-25T04:44:51;12.70;;;3.30;;
68144;SDS011;55400;51.824;-0.196;2023-04-25T04:48:51;12.30;;;3.60;;
68144;SDS011;55400;51.824;-0.196;2023-04-25T04:52:51;10.40;;;3.60;;
68144;SDS011;55400;51.824;-0.196;2023-04-25T04:56:51;9.60;;;3.50;;
68144;SDS011;55400;51.824;-0.196;2023-04-25T05:00:51;11.90;;;3.40;;
68144;SDS011;55400;51.824;-0.196;2023-04-25T05:08:51;11.00;;;3.60;;
68144;SDS011;55400;51.824;-0.196;2023-04-25T05:12:51;17.80;;;3.80;;
68144;SDS011;55400;51.824;-0.196;2023-04-25T05:16:51;11.60;;;3.90;;
68144;SDS011;55400;51.824;-0.196;2023-04-25T05:20:51;12.70;;;3.60;;
68144;SDS011;55400;51.824;-0.196;2023-04-25T05:24:51;14.10;;;3.60;;
68144;SDS011;55400;51.824;-0.196;2023-04-25T05:28:51;15.40;;;4.00;;
68144;SDS011;55400;51.824;-0.196;2023-04-25T05:32:51;12.80;;;4.00;;
68144;SDS011;55400;51.824;-0.196;2023-04-25T05:36:51;16.30;;;3.80;;
68144;SDS011;55400;51.824;-0.196;2023-04-25T05:40:51;11.30;;;3.90;;
68144;SDS011;55400;51.824;-0.196;2023-04-25T05:44:51;12.10;;;3.40;;
68144;SDS011;55400;51.824;-0.196;2023-04-25T05:48:51;15.60;;;3.80;;
68144;SDS011;55400;51.824;-0.196;2023-04-25T05:56:51;11.70;;;3.50;;
68144;SDS011;55400;51.824;-0.196;2023-04-25T06:00:52;13.90;;;4.00;;
68144;SDS011;55400;51.824;-0.196;2023-04-25T06:04:52;10.80;;;4.00;;
68144;SDS011;55400;51.824;-0.196;2023-04-25T06:08:51;14.70;;;3.80;;
68144;SDS011;55400;51.824;-0.196;2023-04-25T06:12:51;10.60;;;3.60;;
68144;SDS011;55400;51.824;-0.196;2023-04-25T06:16:51;12.50;;;3.80;;
68144;SDS011;55400;51.824;-0.196;2023-04-25T06:20:51;17.40;;;4.40;;
68144;SDS011;55400;51.824;-0.196;2023-04-25T06:24:51;10.40;;;3.50;;
68144;SDS011;55400;51.824;-0.196;2023-04-25T06:28:51;10.70;;;3.20;;
68144;SDS011;55400;51.824;-0.196;2023-04-25T06:32:51;11.70;;;3.10;;
68144;SDS011;55400;51.824;-0.196;2023-04-25T06:36:51;12.90;;;3.10;;
68144;SDS011;55400;51.824;-0.196;2023-04-25T06:40:52;11.30;;;3.10;;
68144;SDS011;55400;51.824;-0.196;2023-04-25T06:44:51;17.50;;;3.60;;
68144;SDS011;55400;51.824;-0.196;2023-04-25T06:48:52;13.00;;;3.10;;
68144;SDS011;55400;51.824;-0.196;2023-04-25T06:52:51;17.40;;;3.30;;
68144;SDS011;55400;51.824;-0.196;2023-04-25T06:56:51;9.70;;;2.80;;
68144;SDS011;55400;51.824;-0.196;2023-04-25T07:00:52;11.70;;;3.50;;
68144;SDS011;55400;51.824;-0.196;2023-04-25T07:04:52;10.80;;;3.10;;
68144;SDS011;55400;51.824;-0.196;2023-04-25T07:08:51;11.70;;;3.60;;
68144;SDS011;55400;51.824;-0.196;2023-04-25T07:12:52;12.70;;;3.00;;
68144;SDS011;55400;51.824;-0.196;2023-04-25T07:16:51;14.60;;;3.40;;
68144;SDS011;55400;51.824;-0.196;2023-04-25T07:20:52;13.80;;;3.70;;
68144;SDS011;55400;51.824;-0.196;2023-04-25T07:24:51;13.80;;;3.40;;
68144;SDS011;55400;51.824;-0.196;2023-04-25T07:28:51;11.90;;;3.20;;
68144;SDS011;55400;51.824;-0.196;2023-04-25T07:32:51;12.80;;;3.40;;
68144;SDS011;55400;51.824;-0.196;2023-04-25T07:36:52;9.20;;;3.10;;
68144;SDS011;55400;51.824;-0.196;2023-04-25T07:40:52;11.20;;;3.10;;
68144;SDS011;55400;51.824;-0.196;2023-04-25T07:44:52;13.40;;;3.40;;
68144;SDS011;55400;51.824;-0.196;2023-04-25T07:48:51;13.50;;;3.10;;
68144;SDS011;55400;51.824;-0.196;2023-04-25T07:52:52;10.00;;;2.80;;
68144;SDS011;55400;51.824;-0.196;2023-04-25T07:56:52;11.00;;;3.10;;
68144;SDS011;55400;51.824;-0.196;2023-04-25T08:00:52;8.90;;;3.10;;
68144;SDS011;55400;51.824;-0.196;2023-04-25T08:04:51;11.00;;;3.30;;
68144;SDS011;55400;51.824;-0.196;2023-04-25T08:08:52;13.50;;;3.40;;
68144;SDS011;55400;51.824;-0.196;2023-04-25T08:12:52;12.50;;;3.10;;
68144;SDS011;55400;51.824;-0.196;2023-04-25T08:16:52;13.00;;;3.30;;
68144;SDS011;55400;51.824;-0.196;2023-04-25T08:20:52;10.30;;;2.80;;
68144;SDS011;55400;51.824;-0.196;2023-04-25T08:24:52;9.90;;;3.10;;
68144;SDS011;55400;51.824;-0.196;2023-04-25T08:28:52;12.90;;;3.40;;
68144;SDS011;55400;51.824;-0.196;2023-04-25T08:32:52;10.50;;;3.20;;
68144;SDS011;55400;51.824;-0.196;2023-04-25T08:36:52;10.50;;;3.00;;
68144;SDS011;55400;51.824;-0.196;2023-04-25T08:40:54;11.30;;;3.40;;
68144;SDS011;55400;51.824;-0.196;2023-04-25T08:44:53;8.60;;;3.00;;
68144;SDS011;55400;51.824;-0.196;2023-04-25T08:48:53;9.80;;;2.90;;
68144;SDS011;55400;51.824;-0.196;2023-04-25T08:52:53;11.90;;;2.90;;
68144;SDS011;55400;51.824;-0.196;2023-04-25T08:56:54;12.80;;;3.20;;
68144;SDS011;55400;51.824;-0.196;2023-04-25T09:00:52;9.80;;;3.20;;
68144;SDS011;55400;51.824;-0.196;2023-04-25T09:04:53;11.10;;;3.10;;
68144;SDS011;55400;51.824;-0.196;2023-04-25T09:08:52;10.50;;;2.90;;
68144;SDS011;55400;51.824;-0.196;2023-04-25T09:13:02;8.70;;;3.10;;
68144;SDS011;55400;51.824;-0.196;2023-04-25T09:17:01;11.60;;;2.80;;
68144;SDS011;55400;51.824;-0.196;2023-04-25T09:20:52;9.00;;;2.40;;
68144;SDS011;55400;51.824;-0.196;2023-04-25T09:24:52;11.20;;;3.00;;
68144;SDS011;55400;51.824;-0.196;2023-04-25T09:29:04;9.60;;;2.70;;
68144;SDS011;55400;51.824;-0.196;2023-04-25T09:32:56;9.50;;;2.70;;
68144;SDS011;55400;51.824;-0.196;2023-04-25T09:36:54;10.30;;;2.50;;
68144;SDS011;55400;51.824;-0.196;2023-04-25T09:40:52;7.00;;;2.60;;
68144;SDS011;55400;51.824;-0.196;2023-04-25T09:44:53;6.30;;;2.10;;
68144;SDS011;55400;51.824;-0.196;2023-04-25T09:48:52;8.60;;;2.60;;
68144;SDS011;55400;51.824;-0.196;2023-04-25T09:53:02;9.50;;;2.40;;
68144;SDS011;55400;51.824;-0.196;2023-04-25T09:56:53;6.50;;;2.00;;
68144;SDS011;55400;51.824;-0.196;2023-04-25T10:00:53;8.80;;;2.30;;
68144;SDS011;55400;51.824;-0.196;2023-04-25T10:04:53;7.20;;;2.30;;
68144;SDS011;55400;51.824;-0.196;2023-04-25T10:08:52;10.70;;;2.10;;
68144;SDS011;55400;51.824;-0.196;2023-04-25T10:12:52;8.20;;;1.90;;
68144;SDS011;55400;51.824;-0.196;2023-04-25T10:16:53;7.70;;;2.00;;
68144;SDS011;55400;51.824;-0.196;2023-04-25T10:20:53;6.90;;;1.90;;
68144;SDS011;55400;51.824;-0.196;2023-04-25T10:24:52;6.60;;;2.30;;
68144;SDS011;55400;51.824;-0.196;2023-04-25T10:28:56;2.60;;;1.30;;
68144;SDS011;55400;51.824;-0.196;2023-04-25T10:32:54;5.00;;;2.00;;
68144;SDS011;55400;51.824;-0.196;2023-04-25T10:36:52;6.10;;;2.30;;
68144;SDS011;55400;51.824;-0.196;2023-04-25T10:41:02;5.10;;;2.00;;
68144;SDS011;55400;51.824;-0.196;2023-04-25T10:45:01;6.30;;;1.80;;
68144;SDS011;55400;51.824;-0.196;2023-04-25T10:48:54;6.90;;;1.80;;
68144;SDS011;55400;51.824;-0.196;2023-04-25T10:52:53;7.10;;;1.80;;
68144;SDS011;55400;51.824;-0.196;2023-04-25T10:56:52;4.20;;;1.90;;
68144;SDS011;55400;51.824;-0.196;2023-04-25T11:00:52;5.00;;;1.80;;
68144;SDS011;55400;51.824;-0.196;2023-04-25T11:04:53;4.60;;;1.70;;
68144;SDS011;55400;51.824;-0.196;2023-04-25T11:08:52;4.30;;;1.40;;
68144;SDS011;55400;51.824;-0.196;2023-04-25T11:12:53;6.30;;;1.70;;
68144;SDS011;55400;51.824;-0.196;2023-04-25T11:16:52;5.70;;;1.80;;
68144;SDS011;55400;51.824;-0.196;2023-04-25T11:20:52;4.20;;;1.70;;
68144;SDS011;55400;51.824;-0.196;2023-04-25T11:24:52;5.50;;;1.60;;
68144;SDS011;55400;51.824;-0.196;2023-04-25T11:28:57;5.40;;;1.70;;
68144;SDS011;55400;51.824;-0.196;2023-04-25T11:32:52;7.20;;;1.90;;
68144;SDS011;55400;51.824;-0.196;2023-04-25T11:36:53;9.20;;;2.00;;
68144;SDS011;55400;51.824;-0.196;2023-04-25T11:40:52;9.90;;;2.20;;
68144;SDS011;55400;51.824;-0.196;2023-04-25T11:44:52;7.20;;;1.80;;
68144;SDS011;55400;51.824;-0.196;2023-04-25T11:48:55;7.10;;;1.60;;
68144;SDS011;55400;51.824;-0.196;2023-04-25T11:52:56;3.80;;;1.60;;
68144;SDS011;55400;51.824;-0.196;2023-04-25T11:56:52;5.10;;;1.50;;
68144;SDS011;55400;51.824;-0.196;2023-04-25T12:00:52;3.40;;;1.90;;
68144;SDS011;55400;51.824;-0.196;2023-04-25T12:04:52;5.90;;;1.90;;
68144;SDS011;55400;51.824;-0.196;2023-04-25T12:09:02;4.30;;;2.10;;
68144;SDS011;55400;51.824;-0.196;2023-04-25T12:12:52;7.40;;;2.20;;
68144;SDS011;55400;51.824;-0.196;2023-04-25T12:16:55;4.90;;;2.20;;
68144;SDS011;55400;51.824;-0.196;2023-04-25T12:20:52;6.70;;;2.10;;
68144;SDS011;55400;51.824;-0.196;2023-04-25T12:24:52;8.90;;;2.10;;
68144;SDS011;55400;51.824;-0.196;2023-04-25T12:28:52;7.50;;;2.30;;
68144;SDS011;55400;51.824;-0.196;2023-04-25T12:32:52;3.70;;;2.00;;
68144;SDS011;55400;51.824;-0.196;2023-04-25T12:36:52;4.80;;;2.50;;
68144;SDS011;55400;51.824;-0.196;2023-04-25T12:40:53;4.80;;;2.10;;
68144;SDS011;55400;51.824;-0.196;2023-04-25T12:44:52;5.40;;;2.10;;
68144;SDS011;55400;51.824;-0.196;2023-04-25T12:48:52;4.90;;;1.90;;
68144;SDS011;55400;51.824;-0.196;2023-04-25T12:52:52;5.60;;;2.20;;
68144;SDS011;55400;51.824;-0.196;2023-04-25T12:56:53;3.60;;;1.80;;
68144;SDS011;55400;51.824;-0.196;2023-04-25T13:00:53;6.30;;;2.40;;
68144;SDS011;55400;51.824;-0.196;2023-04-25T13:04:52;6.10;;;2.20;;
68144;SDS011;55400;51.824;-0.196;2023-04-25T13:08:52;3.30;;;1.80;;
68144;SDS011;55400;51.824;-0.196;2023-04-25T13:12:53;4.90;;;2.20;;
68144;SDS011;55400;51.824;-0.196;2023-04-25T13:20:53;5.70;;;2.40;;
68144;SDS011;55400;51.824;-0.196;2023-04-25T13:28:52;6.90;;;2.50;;
68144;SDS011;55400;51.824;-0.196;2023-04-25T13:32:53;6.70;;;2.40;;
68144;SDS011;55400;51.824;-0.196;2023-04-25T13:36:52;5.30;;;2.30;;
68144;SDS011;55400;51.824;-0.196;2023-04-25T13:40:53;5.90;;;2.60;;
68144;SDS011;55400;51.824;-0.196;2023-04-25T13:44:53;4.10;;;2.00;;
68144;SDS011;55400;51.824;-0.196;2023-04-25T13:48:52;5.90;;;2.40;;
68144;SDS011;55400;51.824;-0.196;2023-04-25T13:52:53;4.90;;;2.30;;
68144;SDS011;55400;51.824;-0.196;2023-04-25T13:56:52;5.30;;;2.30;;
68144;SDS011;55400;51.824;-0.196;2023-04-25T14:00:53;11.50;;;2.50;;
68144;SDS011;55400;51.824;-0.196;2023-04-25T14:04:53;5.10;;;2.60;;
68144;SDS011;55400;51.824;-0.196;2023-04-25T14:08:53;4.40;;;2.20;;
68144;SDS011;55400;51.824;-0.196;2023-04-25T14:12:53;5.50;;;2.50;;
68144;SDS011;55400;51.824;-0.196;2023-04-25T14:16:53;4.10;;;2.30;;
68144;SDS011;55400;51.824;-0.196;2023-04-25T14:20:53;8.80;;;2.30;;
68144;SDS011;55400;51.824;-0.196;2023-04-25T14:24:53;5.70;;;2.20;;
68144;SDS011;55400;51.824;-0.196;2023-04-25T14:28:53;4.40;;;2.40;;
68144;SDS011;55400;51.824;-0.196;2023-04-25T14:32:53;5.70;;;2.20;;
68144;SDS011;55400;51.824;-0.196;2023-04-25T14:40:53;5.20;;;2.40;;
68144;SDS011;55400;51.824;-0.196;2023-04-25T14:44:53;6.60;;;2.30;;
68144;SDS011;55400;51.824;-0.196;2023-04-25T14:48:53;5.50;;;2.10;;
68144;SDS011;55400;51.824;-0.196;2023-04-25T14:52:53;9.80;;;2.50;;
68144;SDS011;55400;51.824;-0.196;2023-04-25T14:56:53;4.50;;;2.30;;
68144;SDS011;55400;51.824;-0.196;2023-04-25T15:00:53;5.10;;;2.30;;
68144;SDS011;55400;51.824;-0.196;2023-04-25T15:04:53;10.20;;;2.30;;
68144;SDS011;55400;51.824;-0.196;2023-04-25T15:08:53;6.90;;;2.20;;
68144;SDS011;55400;51.824;-0.196;2023-04-25T15:12:53;3.90;;;1.80;;
68144;SDS011;55400;51.824;-0.196;2023-04-25T15:16:53;7.20;;;2.20;;
68144;SDS011;55400;51.824;-0.196;2023-04-25T15:20:53;5.00;;;2.20;;
68144;SDS011;55400;51.824;-0.196;2023-04-25T15:24:53;6.90;;;2.30;;
68144;SDS011;55400;51.824;-0.196;2023-04-25T15:28:53;4.40;;;2.00;;
68144;SDS011;55400;51.824;-0.196;2023-04-25T15:32:53;8.50;;;2.30;;
68144;SDS011;55400;51.824;-0.196;2023-04-25T15:36:53;6.10;;;2.10;;
68144;SDS011;55400;51.824;-0.196;2023-04-25T15:40:53;5.10;;;2.20;;
68144;SDS011;55400;51.824;-0.196;2023-04-25T15:44:53;4.30;;;2.10;;
68144;SDS011;55400;51.824;-0.196;2023-04-25T15:48:53;6.70;;;2.00;;
68144;SDS011;55400;51.824;-0.196;2023-04-25T15:52:53;4.70;;;2.10;;
68144;SDS011;55400;51.824;-0.196;2023-04-25T15:56:53;5.10;;;1.70;;
68144;SDS011;55400;51.824;-0.196;2023-04-25T16:00:53;4.60;;;1.90;;
68144;SDS011;55400;51.824;-0.196;2023-04-25T16:04:53;4.40;;;2.00;;
68144;SDS011;55400;51.824;-0.196;2023-04-25T16:08:53;6.40;;;2.30;;
68144;SDS011;55400;51.824;-0.196;2023-04-25T16:12:53;8.00;;;2.20;;
68144;SDS011;55400;51.824;-0.196;2023-04-25T16:16:53;4.70;;;2.00;;
68144;SDS011;55400;51.824;-0.196;2023-04-25T16:20:53;4.00;;;2.20;;
68144;SDS011;55400;51.824;-0.196;2023-04-25T16:24:53;4.00;;;2.00;;
68144;SDS011;55400;51.824;-0.196;2023-04-25T16:28:53;9.30;;;2.50;;
68144;SDS011;55400;51.824;-0.196;2023-04-25T16:32:53;7.00;;;2.40;;
68144;SDS011;55400;51.824;-0.196;2023-04-25T16:36:53;4.00;;;2.20;;
68144;SDS011;55400;51.824;-0.196;2023-04-25T16:40:53;3.70;;;2.20;;
68144;SDS011;55400;51.824;-0.196;2023-04-25T16:44:53;6.80;;;2.10;;
68144;SDS011;55400;51.824;-0.196;2023-04-25T16:48:53;7.40;;;2.30;;
68144;SDS011;55400;51.824;-0.196;2023-04-25T16:52:53;4.50;;;1.80;;
68144;SDS011;55400;51.824;-0.196;2023-04-25T16:56:53;5.00;;;2.00;;
68144;SDS011;55400;51.824;-0.196;2023-04-25T17:00:53;6.00;;;2.10;;
68144;SDS011;55400;51.824;-0.196;2023-04-25T17:04:53;5.70;;;2.20;;
68144;SDS011;55400;51.824;-0.196;2023-04-25T17:08:53;4.80;;;1.80;;
68144;SDS011;55400;51.824;-0.196;2023-04-25T17:12:53;6.30;;;1.90;;
68144;SDS011;55400;51.824;-0.196;2023-04-25T17:16:53;6.70;;;2.30;;
68144;SDS011;55400;51.824;-0.196;2023-04-25T17:20:54;4.70;;;1.90;;
68144;SDS011;55400;51.824;-0.196;2023-04-25T17:24:53;5.20;;;2.10;;
68144;SDS011;55400;51.824;-0.196;2023-04-25T17:28:53;7.80;;;2.30;;
68144;SDS011;55400;51.824;-0.196;2023-04-25T17:32:53;6.30;;;2.20;;
68144;SDS011;55400;51.824;-0.196;2023-04-25T17:36:53;4.30;;;2.10;;
68144;SDS011;55400;51.824;-0.196;2023-04-25T17:40:53;7.80;;;2.20;;
68144;SDS011;55400;51.824;-0.196;2023-04-25T17:44:53;6.80;;;2.20;;
68144;SDS011;55400;51.824;-0.196;2023-04-25T17:48:53;6.90;;;2.60;;
68144;SDS011;55400;51.824;-0.196;2023-04-25T17:52:53;6.60;;;2.50;;
68144;SDS011;55400;51.824;-0.196;2023-04-25T17:56:53;3.50;;;2.10;;
68144;SDS011;55400;51.824;-0.196;2023-04-25T18:00:53;6.10;;;2.60;;
68144;SDS011;55400;51.824;-0.196;2023-04-25T18:04:53;4.90;;;2.60;;
68144;SDS011;55400;51.824;-0.196;2023-04-25T18:08:53;5.80;;;2.40;;
68144;SDS011;55400;51.824;-0.196;2023-04-25T18:12:54;9.30;;;2.60;;
68144;SDS011;55400;51.824;-0.196;2023-04-25T18:16:53;3.10;;;2.00;;
68144;SDS011;55400;51.824;-0.196;2023-04-25T18:20:53;5.80;;;2.00;;
68144;SDS011;55400;51.824;-0.196;2023-04-25T18:24:53;6.60;;;2.20;;
68144;SDS011;55400;51.824;-0.196;2023-04-25T18:28:53;5.50;;;2.10;;
68144;SDS011;55400;51.824;-0.196;2023-04-25T18:32:53;5.60;;;2.00;;
68144;SDS011;55400;51.824;-0.196;2023-04-25T18:36:53;9.90;;;2.50;;
68144;SDS011;55400;51.824;-0.196;2023-04-25T18:40:53;6.20;;;2.20;;
68144;SDS011;55400;51.824;-0.196;2023-04-25T18:44:53;5.60;;;2.30;;
68144;SDS011;55400;51.824;-0.196;2023-04-25T18:48:54;6.30;;;2.30;;
68144;SDS011;55400;51.824;-0.196;2023-04-25T18:52:53;7.10;;;2.30;;
68144;SDS011;55400;51.824;-0.196;2023-04-25T18:56:53;5.50;;;2.60;;
68144;SDS011;55400;51.824;-0.196;2023-04-25T19:00:53;5.20;;;2.40;;
68144;SDS011;55400;51.824;-0.196;2023-04-25T19:04:54;8.80;;;2.30;;
68144;SDS011;55400;51.824;-0.196;2023-04-25T19:08:54;9.50;;;2.50;;
68144;SDS011;55400;51.824;-0.196;2023-04-25T19:12:54;4.80;;;2.50;;
68144;SDS011;55400;51.824;-0.196;2023-04-25T19:16:53;7.60;;;2.80;;
68144;SDS011;55400;51.824;-0.196;2023-04-25T19:20:54;10.50;;;5.20;;
68144;SDS011;55400;51.824;-0.196;2023-04-25T19:24:54;20.90;;;10.80;;
68144;SDS011;55400;51.824;-0.196;2023-04-25T19:29:04;15.60;;;9.20;;
68144;SDS011;55400;51.824;-0.196;2023-04-25T19:32:54;16.50;;;8.00;;
68144;SDS011;55400;51.824;-0.196;2023-04-25T19:36:54;15.40;;;8.50;;
68144;SDS011;55400;51.824;-0.196;2023-04-25T19:40:53;15.60;;;6.60;;
68144;SDS011;55400;51.824;-0.196;2023-04-25T19:44:53;9.30;;;4.90;;
68144;SDS011;55400;51.824;-0.196;2023-04-25T19:48:53;16.00;;;9.50;;
68144;SDS011;55400;51.824;-0.196;2023-04-25T19:52:54;13.50;;;8.60;;
68144;SDS011;55400;51.824;-0.196;2023-04-25T19:56:54;10.20;;;6.00;;
68144;SDS011;55400;51.824;-0.196;2023-04-25T20:00:54;11.50;;;5.00;;
68144;SDS011;55400;51.824;-0.196;2023-04-25T20:04:53;11.60;;;5.00;;
68144;SDS011;55400;51.824;-0.196;2023-04-25T20:08:54;16.00;;;8.90;;
68144;SDS011;55400;51.824;-0.196;2023-04-25T20:12:54;14.20;;;6.70;;
68144;SDS011;55400;51.824;-0.196;2023-04-25T20:16:54;7.80;;;4.00;;
68144;SDS011;55400;51.824;-0.196;2023-04-25T20:20:54;11.50;;;5.20;;
68144;SDS011;55400;51.824;-0.196;2023-04-25T20:24:54;8.80;;;4.30;;
68144;SDS011;55400;51.824;-0.196;2023-04-25T20:28:54;12.60;;;4.40;;
68144;SDS011;55400;51.824;-0.196;2023-04-25T20:32:54;9.70;;;4.00;;
68144;SDS011;55400;51.824;-0.196;2023-04-25T20:36:54;8.30;;;4.00;;
68144;SDS011;55400;51.824;-0.196;2023-04-25T20:40:54;7.60;;;4.10;;
68144;SDS011;55400;51.824;-0.196;2023-04-25T20:44:54;10.00;;;4.00;;
68144;SDS011;55400;51.824;-0.196;2023-04-25T20:48:54;8.60;;;3.90;;
68144;SDS011;55400;51.824;-0.196;2023-04-25T20:52:54;7.30;;;3.70;;
68144;SDS011;55400;51.824;-0.196;2023-04-25T20:56:54;11.90;;;3.60;;
68144;SDS011;55400;51.824;-0.196;2023-04-25T21:00:54;7.10;;;3.10;;
68144;SDS011;55400;51.824;-0.196;2023-04-25T21:04:54;7.50;;;3.00;;
68144;SDS011;55400;51.824;-0.196;2023-04-25T21:08:54;7.00;;;2.90;;
68144;SDS011;55400;51.824;-0.196;2023-04-25T21:12:54;7.90;;;2.90;;
68144;SDS011;55400;51.824;-0.196;2023-04-25T21:16:54;5.20;;;2.50;;
68144;SDS011;55400;51.824;-0.196;2023-04-25T21:20:54;9.80;;;3.70;;
68144;SDS011;55400;51.824;-0.196;2023-04-25T21:24:54;5.60;;;3.00;;
68144;SDS011;55400;51.824;-0.196;2023-04-25T21:28:54;8.70;;;3.10;;
68144;SDS011;55400;51.824;-0.196;2023-04-25T21:32:54;7.80;;;3.50;;
68144;SDS011;55400;51.824;-0.196;2023-04-25T21:36:54;11.00;;;3.70;;
68144;SDS011;55400;51.824;-0.196;2023-04-25T21:40:54;10.80;;;3.90;;
68144;SDS011;55400;51.824;-0.196;2023-04-25T21:44:54;11.70;;;6.00;;
68144;SDS011;55400;51.824;-0.196;2023-04-25T21:48:54;12.30;;;6.00;;
68144;SDS011;55400;51.824;-0.196;2023-04-25T21:52:54;11.90;;;4.70;;
68144;SDS011;55400;51.824;-0.196;2023-04-25T21:56:55;13.90;;;5.70;;
68144;SDS011;55400;51.824;-0.196;2023-04-25T22:00:54;14.20;;;5.00;;
68144;SDS011;55400;51.824;-0.196;2023-04-25T22:04:54;12.10;;;5.10;;
68144;SDS011;55400;51.824;-0.196;2023-04-25T22:08:54;14.40;;;6.10;;
68144;SDS011;55400;51.824;-0.196;2023-04-25T22:12:54;14.70;;;5.20;;
68144;SDS011;55400;51.824;-0.196;2023-04-25T22:16:54;12.80;;;4.70;;
68144;SDS011;55400;51.824;-0.196;2023-04-25T22:24:54;9.90;;;4.50;;
68144;SDS011;55400;51.824;-0.196;2023-04-25T22:28:54;13.90;;;4.30;;
68144;SDS011;55400;51.824;-0.196;2023-04-25T22:32:54;9.10;;;4.00;;
68144;SDS011;55400;51.824;-0.196;2023-04-25T22:36:54;8.90;;;4.10;;
68144;SDS011;55400;51.824;-0.196;2023-04-25T22:40:54;9.70;;;4.20;;
68144;SDS011;55400;51.824;-0.196;2023-04-25T22:44:54;10.80;;;5.10;;
68144;SDS011;55400;51.824;-0.196;2023-04-25T22:48:54;8.40;;;4.40;;
68144;SDS011;55400;51.824;-0.196;2023-04-25T22:52:54;12.80;;;4.60;;
68144;SDS011;55400;51.824;-0.196;2023-04-25T22:56:54;11.90;;;5.10;;
68144;SDS011;55400;51.824;-0.196;2023-04-25T23:00:54;11.90;;;4.80;;
68144;SDS011;55400;51.824;-0.196;2023-04-25T23:04:54;9.30;;;4.40;;
68144;SDS011;55400;51.824;-0.196;2023-04-25T23:08:54;12.20;;;4.40;;
68144;SDS011;55400;51.824;-0.196;2023-04-25T23:12:54;9.10;;;4.50;;
68144;SDS011;55400;51.824;-0.196;2023-04-25T23:16:54;11.80;;;4.30;;
68144;SDS011;55400;51.824;-0.196;2023-04-25T23:20:54;11.00;;;4.00;;
68144;SDS011;55400;51.824;-0.196;2023-04-25T23:24:54;9.90;;;4.00;;
68144;SDS011;55400;51.824;-0.196;2023-04-25T23:32:54;9.70;;;4.20;;
68144;SDS011;55400;51.824;-0.196;2023-04-25T23:36:54;12.60;;;4.40;;
68144;SDS011;55400;51.824;-0.196;2023-04-25T23:40:54;13.50;;;4.60;;
68144;SDS011;55400;51.824;-0.196;2023-04-25T23:44:54;10.70;;;4.50;;
68144;SDS011;55400;51.824;-0.196;2023-04-25T23:48:54;9.00;;;4.20;;
68144;SDS011;55400;51.824;-0.196;2023-04-25T23:52:54;11.00;;;4.30;;
68144;SDS011;55400;51.824;-0.196;2023-04-25T23:56:54;9.30;;;4.10;;
